sensor_id;sensor_type;location;lat;lon;timestamp;pressure;altitude;pressure_sealevel;temperature
69857;BMP280;57147;53.582;10.112;2023-04-24T00:01:38;99816.97;;;10.79
69857;BMP280;57147;53.582;10.112;2023-04-24T00:06:41;99821.19;;;10.71
69857;BMP280;57147;53.582;10.112;2023-04-24T00:11:41;99820.41;;;10.70
69857;BMP280;57147;53.582;10.112;2023-04-24T00:16:42;99801.97;;;10.57
69857;BMP280;57147;53.582;10.112;2023-04-24T00:21:45;99819.94;;;10.60
69857;BMP280;57147;53.582;10.112;2023-04-24T00:26:46;99804.47;;;10.70
69857;BMP280;57147;53.582;10.112;2023-04-24T00:31:46;99789.50;;;10.75
69857;BMP280;57147;53.582;10.112;2023-04-24T00:36:50;99773.09;;;10.64
69857;BMP280;57147;53.582;10.112;2023-04-24T00:41:50;99773.25;;;10.50
69857;BMP280;57147;53.582;10.112;2023-04-24T00:46:51;99774.81;;;10.51
69857;BMP280;57147;53.582;10.112;2023-04-24T00:51:55;99767.78;;;10.38
69857;BMP280;57147;53.582;10.112;2023-04-24T00:56:55;99785.41;;;10.34
69857;BMP280;57147;53.582;10.112;2023-04-24T01:01:57;99778.09;;;10.31
69857;BMP280;57147;53.582;10.112;2023-04-24T01:07:00;99780.09;;;10.34
69857;BMP280;57147;53.582;10.112;2023-04-24T01:12:01;99768.72;;;10.25
69857;BMP280;57147;53.582;10.112;2023-04-24T01:17:02;99778.84;;;10.23
69857;BMP280;57147;53.582;10.112;2023-04-24T01:22:11;99756.34;;;10.12
69857;BMP280;57147;53.582;10.112;2023-04-24T01:27:12;99767.28;;;10.19
69857;BMP280;57147;53.582;10.112;2023-04-24T01:32:13;99759.94;;;10.07
69857;BMP280;57147;53.582;10.112;2023-04-24T01:37:17;99770.69;;;10.11
69857;BMP280;57147;53.582;10.112;2023-04-24T01:42:18;99755.44;;;10.33
69857;BMP280;57147;53.582;10.112;2023-04-24T01:47:18;99698.94;;;10.50
69857;BMP280;57147;53.582;10.112;2023-04-24T01:52:22;99685.06;;;10.62
69857;BMP280;57147;53.582;10.112;2023-04-24T01:57:23;99669.63;;;10.38
69857;BMP280;57147;53.582;10.112;2023-04-24T02:02:23;99683.84;;;10.16
69857;BMP280;57147;53.582;10.112;2023-04-24T02:07:26;99680.25;;;10.04
69857;BMP280;57147;53.582;10.112;2023-04-24T02:12:27;99686.47;;;9.90
69857;BMP280;57147;53.582;10.112;2023-04-24T02:17:28;99692.06;;;9.80
69857;BMP280;57147;53.582;10.112;2023-04-24T02:22:32;99689.28;;;9.85
69857;BMP280;57147;53.582;10.112;2023-04-24T02:27:32;99706.41;;;9.79
69857;BMP280;57147;53.582;10.112;2023-04-24T02:32:33;99720.06;;;9.55
69857;BMP280;57147;53.582;10.112;2023-04-24T02:37:36;99749.16;;;9.38
69857;BMP280;57147;53.582;10.112;2023-04-24T02:42:36;99758.00;;;9.34
69857;BMP280;57147;53.582;10.112;2023-04-24T02:47:37;99732.81;;;9.45
69857;BMP280;57147;53.582;10.112;2023-04-24T02:52:40;99712.22;;;9.42
69857;BMP280;57147;53.582;10.112;2023-04-24T02:57:41;99693.81;;;9.37
69857;BMP280;57147;53.582;10.112;2023-04-24T03:02:42;99687.75;;;9.36
69857;BMP280;57147;53.582;10.112;2023-04-24T03:07:45;99681.66;;;9.36
69857;BMP280;57147;53.582;10.112;2023-04-24T03:12:45;99669.16;;;9.28
69857;BMP280;57147;53.582;10.112;2023-04-24T03:17:46;99664.94;;;9.27
69857;BMP280;57147;53.582;10.112;2023-04-24T03:22:49;99655.44;;;9.26
69857;BMP280;57147;53.582;10.112;2023-04-24T03:27:50;99620.44;;;8.89
69857;BMP280;57147;53.582;10.112;2023-04-24T03:32:50;99648.56;;;9.16
69857;BMP280;57147;53.582;10.112;2023-04-24T03:37:53;99656.38;;;9.12
69857;BMP280;57147;53.582;10.112;2023-04-24T03:42:54;99663.34;;;9.08
69857;BMP280;57147;53.582;10.112;2023-04-24T03:47:55;99648.69;;;9.02
69857;BMP280;57147;53.582;10.112;2023-04-24T03:52:58;99660.69;;;9.08
69857;BMP280;57147;53.582;10.112;2023-04-24T03:57:58;99647.25;;;8.96
69857;BMP280;57147;53.582;10.112;2023-04-24T04:02:59;99652.72;;;9.00
69857;BMP280;57147;53.582;10.112;2023-04-24T04:08:02;99650.00;;;8.91
69857;BMP280;57147;53.582;10.112;2023-04-24T04:13:03;99652.81;;;8.86
69857;BMP280;57147;53.582;10.112;2023-04-24T04:18:04;99636.19;;;8.72
69857;BMP280;57147;53.582;10.112;2023-04-24T04:23:07;99633.09;;;8.70
69857;BMP280;57147;53.582;10.112;2023-04-24T04:28:08;99632.75;;;8.63
69857;BMP280;57147;53.582;10.112;2023-04-24T04:33:08;99658.34;;;8.76
69857;BMP280;57147;53.582;10.112;2023-04-24T04:38:12;99670.97;;;8.79
69857;BMP280;57147;53.582;10.112;2023-04-24T04:43:12;99677.66;;;8.76
69857;BMP280;57147;53.582;10.112;2023-04-24T04:48:13;99687.00;;;8.83
69857;BMP280;57147;53.582;10.112;2023-04-24T04:53:18;99695.50;;;8.93
69857;BMP280;57147;53.582;10.112;2023-04-24T04:58:21;99695.75;;;9.05
69857;BMP280;57147;53.582;10.112;2023-04-24T05:08:43;99703.97;;;9.43
69857;BMP280;57147;53.582;10.112;2023-04-24T05:13:44;99732.88;;;9.62
69857;BMP280;57147;53.582;10.112;2023-04-24T05:18:46;99718.81;;;9.53
69857;BMP280;57147;53.582;10.112;2023-04-24T05:23:49;99723.34;;;9.52
69857;BMP280;57147;53.582;10.112;2023-04-24T05:28:50;99725.69;;;9.54
69857;BMP280;57147;53.582;10.112;2023-04-24T05:33:50;99725.69;;;9.54
69857;BMP280;57147;53.582;10.112;2023-04-24T05:38:54;99718.06;;;9.61
69857;BMP280;57147;53.582;10.112;2023-04-24T05:43:54;99723.22;;;9.66
69857;BMP280;57147;53.582;10.112;2023-04-24T05:48:55;99723.56;;;9.73
69857;BMP280;57147;53.582;10.112;2023-04-24T05:53:58;99749.00;;;9.83
69857;BMP280;57147;53.582;10.112;2023-04-24T05:58:59;99743.72;;;9.91
69857;BMP280;57147;53.582;10.112;2023-04-24T06:03:59;99751.06;;;9.95
69857;BMP280;57147;53.582;10.112;2023-04-24T06:09:03;99750.91;;;10.00
69857;BMP280;57147;53.582;10.112;2023-04-24T06:14:03;99753.84;;;10.07
69857;BMP280;57147;53.582;10.112;2023-04-24T06:19:04;99754.78;;;10.11
69857;BMP280;57147;53.582;10.112;2023-04-24T06:24:07;99756.69;;;10.19
69857;BMP280;57147;53.582;10.112;2023-04-24T06:29:11;99769.66;;;10.29
69857;BMP280;57147;53.582;10.112;2023-04-24T06:34:12;99762.78;;;10.37
69857;BMP280;57147;53.582;10.112;2023-04-24T06:39:15;99771.38;;;10.42
69857;BMP280;57147;53.582;10.112;2023-04-24T06:44:16;99784.81;;;10.54
69857;BMP280;57147;53.582;10.112;2023-04-24T06:49:17;99789.50;;;10.57
69857;BMP280;57147;53.582;10.112;2023-04-24T06:54:20;99717.06;;;10.31
69857;BMP280;57147;53.582;10.112;2023-04-24T06:59:20;99785.06;;;10.96
69857;BMP280;57147;53.582;10.112;2023-04-24T07:04:21;99794.56;;;11.14
69857;BMP280;57147;53.582;10.112;2023-04-24T07:09:25;99799.19;;;11.34
69857;BMP280;57147;53.582;10.112;2023-04-24T07:14:26;99809.78;;;11.81
69857;BMP280;57147;53.582;10.112;2023-04-24T07:19:27;99818.03;;;12.17
69857;BMP280;57147;53.582;10.112;2023-04-24T07:24:30;99810.38;;;12.37
69857;BMP280;57147;53.582;10.112;2023-04-24T07:29:31;99835.84;;;12.25
69857;BMP280;57147;53.582;10.112;2023-04-24T07:34:31;99830.84;;;12.45
69857;BMP280;57147;53.582;10.112;2023-04-24T07:39:36;99836.59;;;12.47
69857;BMP280;57147;53.582;10.112;2023-04-24T07:44:36;99836.34;;;12.93
69857;BMP280;57147;53.582;10.112;2023-04-24T07:49:37;99845.41;;;12.80
69857;BMP280;57147;53.582;10.112;2023-04-24T07:54:40;99858.94;;;12.75
69857;BMP280;57147;53.582;10.112;2023-04-24T07:59:41;99852.28;;;12.81
69857;BMP280;57147;53.582;10.112;2023-04-24T08:04:41;99862.75;;;12.65
69857;BMP280;57147;53.582;10.112;2023-04-24T08:09:45;99854.22;;;12.72
69857;BMP280;57147;53.582;10.112;2023-04-24T08:14:45;99847.69;;;13.02
69857;BMP280;57147;53.582;10.112;2023-04-24T08:19:46;99877.47;;;13.04
69857;BMP280;57147;53.582;10.112;2023-04-24T08:24:49;99890.59;;;13.09
69857;BMP280;57147;53.582;10.112;2023-04-24T08:29:50;99892.25;;;13.14
69857;BMP280;57147;53.582;10.112;2023-04-24T08:34:50;99880.38;;;13.11
69857;BMP280;57147;53.582;10.112;2023-04-24T08:39:54;99902.81;;;13.10
69857;BMP280;57147;53.582;10.112;2023-04-24T08:44:55;99871.97;;;12.68
69857;BMP280;57147;53.582;10.112;2023-04-24T08:49:56;99878.94;;;12.81
69857;BMP280;57147;53.582;10.112;2023-04-24T08:55:00;99901.28;;;12.68
69857;BMP280;57147;53.582;10.112;2023-04-24T09:00:01;99924.69;;;13.49
69857;BMP280;57147;53.582;10.112;2023-04-24T09:05:03;99907.34;;;13.55
69857;BMP280;57147;53.582;10.112;2023-04-24T09:10:07;99907.94;;;13.15
69857;BMP280;57147;53.582;10.112;2023-04-24T09:15:08;99923.88;;;13.03
69857;BMP280;57147;53.582;10.112;2023-04-24T09:20:10;99920.22;;;13.41
69857;BMP280;57147;53.582;10.112;2023-04-24T09:25:13;99922.31;;;13.02
69857;BMP280;57147;53.582;10.112;2023-04-24T09:30:21;99942.59;;;12.74
69857;BMP280;57147;53.582;10.112;2023-04-24T09:35:21;99914.88;;;13.08
69857;BMP280;57147;53.582;10.112;2023-04-24T09:40:25;99901.84;;;12.94
69857;BMP280;57147;53.582;10.112;2023-04-24T09:45:28;99920.91;;;13.50
69857;BMP280;57147;53.582;10.112;2023-04-24T09:50:30;99913.34;;;13.52
69857;BMP280;57147;53.582;10.112;2023-04-24T09:55:38;99928.22;;;13.53
69857;BMP280;57147;53.582;10.112;2023-04-24T10:00:39;99943.88;;;13.09
69857;BMP280;57147;53.582;10.112;2023-04-24T10:05:40;99933.22;;;12.68
69857;BMP280;57147;53.582;10.112;2023-04-24T10:10:44;99940.25;;;12.93
69857;BMP280;57147;53.582;10.112;2023-04-24T10:15:48;99936.00;;;13.46
69857;BMP280;57147;53.582;10.112;2023-04-24T10:20:49;99940.38;;;13.17
69857;BMP280;57147;53.582;10.112;2023-04-24T10:25:53;99946.84;;;12.46
69857;BMP280;57147;53.582;10.112;2023-04-24T10:30:54;99940.31;;;12.85
69857;BMP280;57147;53.582;10.112;2023-04-24T10:35:55;99946.13;;;13.52
69857;BMP280;57147;53.582;10.112;2023-04-24T10:41:07;99942.88;;;13.35
69857;BMP280;57147;53.582;10.112;2023-04-24T10:46:08;99951.88;;;12.68
69857;BMP280;57147;53.582;10.112;2023-04-24T10:51:11;99930.63;;;12.39
69857;BMP280;57147;53.582;10.112;2023-04-24T10:56:16;99925.06;;;11.85
69857;BMP280;57147;53.582;10.112;2023-04-24T11:01:24;99937.94;;;11.74
69857;BMP280;57147;53.582;10.112;2023-04-24T11:06:29;99940.22;;;12.31
69857;BMP280;57147;53.582;10.112;2023-04-24T11:11:33;99923.97;;;13.28
69857;BMP280;57147;53.582;10.112;2023-04-24T11:21:58;99946.50;;;14.36
69857;BMP280;57147;53.582;10.112;2023-04-24T11:27:06;99948.97;;;13.92
69857;BMP280;57147;53.582;10.112;2023-04-24T11:32:17;99942.94;;;13.95
69857;BMP280;57147;53.582;10.112;2023-04-24T11:37:18;99944.28;;;13.89
69857;BMP280;57147;53.582;10.112;2023-04-24T11:42:22;99948.50;;;13.00
69857;BMP280;57147;53.582;10.112;2023-04-24T11:47:29;99952.72;;;13.01
69857;BMP280;57147;53.582;10.112;2023-04-24T11:52:30;99931.84;;;14.06
69857;BMP280;57147;53.582;10.112;2023-04-24T11:57:33;99949.41;;;14.07
69857;BMP280;57147;53.582;10.112;2023-04-24T12:02:34;99960.66;;;13.43
69857;BMP280;57147;53.582;10.112;2023-04-24T12:07:40;99941.28;;;13.91
69857;BMP280;57147;53.582;10.112;2023-04-24T12:12:45;99957.88;;;14.33
69857;BMP280;57147;53.582;10.112;2023-04-24T12:17:45;99950.69;;;14.49
69857;BMP280;57147;53.582;10.112;2023-04-24T12:22:48;99929.25;;;14.73
69857;BMP280;57147;53.582;10.112;2023-04-24T12:27:55;99944.31;;;14.94
69857;BMP280;57147;53.582;10.112;2023-04-24T12:33:08;99956.09;;;14.37
69857;BMP280;57147;53.582;10.112;2023-04-24T12:38:09;99958.06;;;13.91
69857;BMP280;57147;53.582;10.112;2023-04-24T12:43:17;99962.94;;;13.89
69857;BMP280;57147;53.582;10.112;2023-04-24T12:48:18;99964.75;;;13.85
69857;BMP280;57147;53.582;10.112;2023-04-24T12:53:19;99969.69;;;13.63
69857;BMP280;57147;53.582;10.112;2023-04-24T12:58:22;99964.66;;;12.95
69857;BMP280;57147;53.582;10.112;2023-04-24T13:03:23;99981.94;;;12.48
69857;BMP280;57147;53.582;10.112;2023-04-24T13:08:24;99981.84;;;12.27
69857;BMP280;57147;53.582;10.112;2023-04-24T13:13:27;99977.38;;;12.10
69857;BMP280;57147;53.582;10.112;2023-04-24T13:18:28;99969.31;;;11.81
69857;BMP280;57147;53.582;10.112;2023-04-24T13:23:29;99948.91;;;11.56
69857;BMP280;57147;53.582;10.112;2023-04-24T13:28:32;99967.69;;;11.59
69857;BMP280;57147;53.582;10.112;2023-04-24T13:33:33;99948.16;;;11.03
69857;BMP280;57147;53.582;10.112;2023-04-24T13:38:34;99898.13;;;10.45
69857;BMP280;57147;53.582;10.112;2023-04-24T13:43:37;99919.69;;;10.52
69857;BMP280;57147;53.582;10.112;2023-04-24T13:48:37;99905.66;;;10.95
69857;BMP280;57147;53.582;10.112;2023-04-24T13:53:38;99936.75;;;11.37
69857;BMP280;57147;53.582;10.112;2023-04-24T13:58:41;99934.22;;;11.49
69857;BMP280;57147;53.582;10.112;2023-04-24T14:03:42;99925.66;;;11.35
69857;BMP280;57147;53.582;10.112;2023-04-24T14:08:43;99921.59;;;11.29
69857;BMP280;57147;53.582;10.112;2023-04-24T14:13:46;99887.41;;;10.85
69857;BMP280;57147;53.582;10.112;2023-04-24T14:18:47;99850.06;;;10.55
69857;BMP280;57147;53.582;10.112;2023-04-24T14:23:47;99870.84;;;11.05
69857;BMP280;57147;53.582;10.112;2023-04-24T14:28:50;99895.66;;;11.26
69857;BMP280;57147;53.582;10.112;2023-04-24T14:33:51;99889.69;;;11.93
69857;BMP280;57147;53.582;10.112;2023-04-24T14:38:52;99908.63;;;11.83
69857;BMP280;57147;53.582;10.112;2023-04-24T14:43:55;99910.63;;;11.57
69857;BMP280;57147;53.582;10.112;2023-04-24T14:48:56;99915.00;;;11.52
69857;BMP280;57147;53.582;10.112;2023-04-24T14:53:58;99928.44;;;11.47
69857;BMP280;57147;53.582;10.112;2023-04-24T14:59:01;99902.03;;;10.39
69857;BMP280;57147;53.582;10.112;2023-04-24T15:04:02;99838.44;;;9.38
69857;BMP280;57147;53.582;10.112;2023-04-24T15:09:03;99839.88;;;9.22
69857;BMP280;57147;53.582;10.112;2023-04-24T15:14:06;99831.94;;;9.22
69857;BMP280;57147;53.582;10.112;2023-04-24T15:19:07;99795.84;;;9.03
69857;BMP280;57147;53.582;10.112;2023-04-24T15:24:08;99856.63;;;9.08
69857;BMP280;57147;53.582;10.112;2023-04-24T15:29:11;99858.59;;;9.03
69857;BMP280;57147;53.582;10.112;2023-04-24T15:34:12;99884.88;;;8.63
69857;BMP280;57147;53.582;10.112;2023-04-24T15:39:12;99899.28;;;8.30
69857;BMP280;57147;53.582;10.112;2023-04-24T15:44:16;99933.72;;;8.11
69857;BMP280;57147;53.582;10.112;2023-04-24T15:49:17;99914.66;;;7.82
69857;BMP280;57147;53.582;10.112;2023-04-24T15:54:17;99930.97;;;7.89
69857;BMP280;57147;53.582;10.112;2023-04-24T15:59:21;99939.09;;;7.74
69857;BMP280;57147;53.582;10.112;2023-04-24T16:04:21;99895.16;;;7.32
69857;BMP280;57147;53.582;10.112;2023-04-24T16:09:23;99974.47;;;7.59
69857;BMP280;57147;53.582;10.112;2023-04-24T16:14:26;99962.78;;;-145.06
69857;BMP280;57147;53.582;10.112;2023-04-24T16:19:27;99971.81;;;7.03
69857;BMP280;57147;53.582;10.112;2023-04-24T16:24:29;100022.75;;;6.79
69857;BMP280;57147;53.582;10.112;2023-04-24T16:29:37;100065.63;;;6.61
69857;BMP280;57147;53.582;10.112;2023-04-24T16:34:38;100101.09;;;6.50
69857;BMP280;57147;53.582;10.112;2023-04-24T16:39:38;100102.38;;;6.13
69857;BMP280;57147;53.582;10.112;2023-04-24T16:44:42;100114.63;;;5.94
69857;BMP280;57147;53.582;10.112;2023-04-24T16:49:43;100083.16;;;5.64
69857;BMP280;57147;53.582;10.112;2023-04-24T16:54:43;100074.34;;;5.29
69857;BMP280;57147;53.582;10.112;2023-04-24T16:59:46;100182.16;;;5.70
69857;BMP280;57147;53.582;10.112;2023-04-24T17:04:47;100201.19;;;5.31
69857;BMP280;57147;53.582;10.112;2023-04-24T17:09:49;100321.50;;;5.61
69857;BMP280;57147;53.582;10.112;2023-04-24T17:14:52;100541.91;;;5.76
69857;BMP280;57147;53.582;10.112;2023-04-24T17:19:53;100625.75;;;5.84
69857;BMP280;57147;53.582;10.112;2023-04-24T17:24:53;100518.63;;;5.32
69857;BMP280;57147;53.582;10.112;2023-04-24T17:29:57;100628.97;;;6.06
69857;BMP280;57147;53.582;10.112;2023-04-24T17:34:58;100586.75;;;5.86
69857;BMP280;57147;53.582;10.112;2023-04-24T17:39:59;100592.84;;;6.02
69857;BMP280;57147;53.582;10.112;2023-04-24T17:45:02;100567.81;;;6.04
69857;BMP280;57147;53.582;10.112;2023-04-24T17:50:04;100498.78;;;6.07
69857;BMP280;57147;53.582;10.112;2023-04-24T17:55:05;100493.22;;;6.14
69857;BMP280;57147;53.582;10.112;2023-04-24T18:00:10;100549.13;;;6.26
69857;BMP280;57147;53.582;10.112;2023-04-24T18:05:14;100388.63;;;5.94
69857;BMP280;57147;53.582;10.112;2023-04-24T18:10:15;100435.75;;;6.36
69857;BMP280;57147;53.582;10.112;2023-04-24T18:15:18;100389.59;;;6.39
69857;BMP280;57147;53.582;10.112;2023-04-24T18:20:22;100363.28;;;6.19
69857;BMP280;57147;53.582;10.112;2023-04-24T18:25:22;100391.47;;;6.43
69857;BMP280;57147;53.582;10.112;2023-04-24T18:30:26;100319.19;;;6.44
69857;BMP280;57147;53.582;10.112;2023-04-24T18:35:26;100259.63;;;6.43
69857;BMP280;57147;53.582;10.112;2023-04-24T18:40:27;100245.63;;;6.43
69857;BMP280;57147;53.582;10.112;2023-04-24T18:45:30;100182.56;;;6.52
69857;BMP280;57147;53.582;10.112;2023-04-24T18:50:31;100168.06;;;6.49
69857;BMP280;57147;53.582;10.112;2023-04-24T18:55:32;100146.03;;;6.35
69857;BMP280;57147;53.582;10.112;2023-04-24T19:00:35;100127.16;;;6.57
69857;BMP280;57147;53.582;10.112;2023-04-24T19:05:35;100116.97;;;6.45
69857;BMP280;57147;53.582;10.112;2023-04-24T19:10:36;100133.25;;;6.47
69857;BMP280;57147;53.582;10.112;2023-04-24T19:15:39;100133.72;;;6.59
69857;BMP280;57147;53.582;10.112;2023-04-24T19:20:46;100106.75;;;6.67
69857;BMP280;57147;53.582;10.112;2023-04-24T19:25:47;100061.84;;;6.72
69857;BMP280;57147;53.582;10.112;2023-04-24T19:30:50;100084.72;;;7.06
69857;BMP280;57147;53.582;10.112;2023-04-24T19:35:52;100036.47;;;6.76
69857;BMP280;57147;53.582;10.112;2023-04-24T19:40:53;100040.09;;;6.85
69857;BMP280;57147;53.582;10.112;2023-04-24T19:45:56;100072.56;;;7.10
69857;BMP280;57147;53.582;10.112;2023-04-24T19:50:57;100049.19;;;6.98
69857;BMP280;57147;53.582;10.112;2023-04-24T19:55:58;100084.06;;;7.19
69857;BMP280;57147;53.582;10.112;2023-04-24T20:01:01;100082.72;;;7.21
69857;BMP280;57147;53.582;10.112;2023-04-24T20:06:02;100060.63;;;7.12
69857;BMP280;57147;53.582;10.112;2023-04-24T20:11:02;100044.59;;;7.09
69857;BMP280;57147;53.582;10.112;2023-04-24T20:16:06;100067.09;;;7.25
69857;BMP280;57147;53.582;10.112;2023-04-24T20:21:07;100047.78;;;7.06
69857;BMP280;57147;53.582;10.112;2023-04-24T20:26:08;100077.16;;;7.23
69857;BMP280;57147;53.582;10.112;2023-04-24T20:31:16;100092.50;;;7.21
69857;BMP280;57147;53.582;10.112;2023-04-24T20:36:17;100073.00;;;7.17
69857;BMP280;57147;53.582;10.112;2023-04-24T20:41:18;100078.94;;;7.04
69857;BMP280;57147;53.582;10.112;2023-04-24T20:46:21;100110.78;;;6.89
69857;BMP280;57147;53.582;10.112;2023-04-24T20:51:22;100148.41;;;6.65
69857;BMP280;57147;53.582;10.112;2023-04-24T20:56:22;100195.91;;;6.60
69857;BMP280;57147;53.582;10.112;2023-04-24T21:01:26;100181.91;;;6.65
69857;BMP280;57147;53.582;10.112;2023-04-24T21:06:26;100182.16;;;6.68
69857;BMP280;57147;53.582;10.112;2023-04-24T21:11:27;100205.31;;;6.76
69857;BMP280;57147;53.582;10.112;2023-04-24T21:16:30;100181.31;;;6.73
69857;BMP280;57147;53.582;10.112;2023-04-24T21:21:31;100179.53;;;6.68
69857;BMP280;57147;53.582;10.112;2023-04-24T21:26:31;100145.09;;;6.55
69857;BMP280;57147;53.582;10.112;2023-04-24T21:31:35;100167.09;;;6.69
69857;BMP280;57147;53.582;10.112;2023-04-24T21:36:36;100152.16;;;6.59
69857;BMP280;57147;53.582;10.112;2023-04-24T21:41:37;100172.19;;;6.60
69857;BMP280;57147;53.582;10.112;2023-04-24T21:46:40;100151.59;;;6.62
69857;BMP280;57147;53.582;10.112;2023-04-24T21:51:40;100120.13;;;6.42
69857;BMP280;57147;53.582;10.112;2023-04-24T21:56:41;100136.28;;;6.64
69857;BMP280;57147;53.582;10.112;2023-04-24T22:01:45;100146.75;;;6.79
69857;BMP280;57147;53.582;10.112;2023-04-24T22:06:45;100103.06;;;6.63
69857;BMP280;57147;53.582;10.112;2023-04-24T22:11:46;100122.94;;;6.84
69857;BMP280;57147;53.582;10.112;2023-04-24T22:16:49;100121.81;;;6.91
69857;BMP280;57147;53.582;10.112;2023-04-24T22:21:50;100103.84;;;6.93
69857;BMP280;57147;53.582;10.112;2023-04-24T22:26:51;100139.69;;;6.99
69857;BMP280;57147;53.582;10.112;2023-04-24T22:31:54;100121.81;;;6.91
69857;BMP280;57147;53.582;10.112;2023-04-24T22:36:54;100137.09;;;6.94
69857;BMP280;57147;53.582;10.112;2023-04-24T22:41:55;100140.78;;;6.93
69857;BMP280;57147;53.582;10.112;2023-04-24T22:46:58;100140.25;;;6.96
69857;BMP280;57147;53.582;10.112;2023-04-24T22:51:59;100130.72;;;7.00
69857;BMP280;57147;53.582;10.112;2023-04-24T22:57:00;100130.16;;;7.03
69857;BMP280;57147;53.582;10.112;2023-04-24T23:02:03;100140.78;;;6.98
69857;BMP280;57147;53.582;10.112;2023-04-24T23:07:04;100131.28;;;6.97
69857;BMP280;57147;53.582;10.112;2023-04-24T23:12:05;100130.25;;;6.93
69857;BMP280;57147;53.582;10.112;2023-04-24T23:17:08;100144.50;;;6.92
69857;BMP280;57147;53.582;10.112;2023-04-24T23:22:08;100149.88;;;6.81
69857;BMP280;57147;53.582;10.112;2023-04-24T23:27:09;100166.34;;;6.68
69857;BMP280;57147;53.582;10.112;2023-04-24T23:32:12;100200.69;;;6.58
69857;BMP280;57147;53.582;10.112;2023-04-24T23:37:13;100224.22;;;6.49
69857;BMP280;57147;53.582;10.112;2023-04-24T23:42:13;100241.22;;;6.28
69857;BMP280;57147;53.582;10.112;2023-04-24T23:47:17;100273.38;;;6.25
69857;BMP280;57147;53.582;10.112;2023-04-24T23:52:17;100319.00;;;6.21
69857;BMP280;57147;53.582;10.112;2023-04-24T23:57:18;100446.59;;;5.99
